San Francisco, California
Traffic Map
Current Weather Conditions
San Francisco, California
Few Clouds
Few Clouds
11°
Feels Like: 11°
Wind Chill: 11° Ceiling: Unl
Heat Index: 11° Visibility: 10mi
Dew Point: Wind: 16mph
Humidity: 71% Direction: 270° (W)
Pressure: 30.11in Gusts: 0mph
Raw Report DataKSFO 231056Z 27014KT 10SM FEW200 11/06 A3011 RMK AO2 SLP197 T01110061
Traffic Incident Summary
Active as of:
Severity:
Category:
InformationThere was an issue retrieving the traffic information for this location. Please try a different location or try again shortly.
Advertisements
At Last! Intellicast now available for iPhone and Android